createdAt,value
2022-07-29T00:01:04.248Z,2.40
2022-07-29T00:03:32.547Z,2.80
2022-07-29T00:06:00.958Z,2.65
2022-07-29T00:08:30.859Z,2.55
2022-07-29T00:13:32.234Z,2.88
2022-07-29T00:16:04.812Z,2.75
2022-07-29T00:18:33.732Z,3.13
2022-07-29T00:21:02.124Z,3.25
2022-07-29T00:23:33.789Z,3.88
2022-07-29T00:26:05.415Z,3.28
2022-07-29T00:28:33.696Z,2.93
2022-07-29T00:31:02.032Z,2.65
2022-07-29T00:33:31.105Z,2.45
2022-07-29T00:35:58.397Z,2.97
2022-07-29T00:38:26.728Z,2.90
2022-07-29T00:40:56.610Z,2.90
2022-07-29T00:43:24.908Z,3.55
2022-07-29T00:45:53.584Z,3.10
2022-07-29T00:48:22.005Z,2.88
2022-07-29T00:50:51.598Z,2.92
2022-07-29T00:53:21.434Z,3.10
2022-07-29T00:55:50.539Z,2.88
2022-07-29T00:58:25.138Z,3.25
2022-07-29T01:00:54.008Z,2.90
2022-07-29T01:03:22.302Z,3.30
2022-07-29T01:05:52.008Z,3.30
2022-07-29T01:08:22.405Z,3.20
2022-07-29T01:10:51.589Z,3.10
2022-07-29T01:13:22.179Z,3.00
2022-07-29T01:15:56.766Z,3.22
2022-07-29T01:18:33.249Z,3.38
2022-07-29T01:21:43.201Z,3.72
2022-07-29T01:24:26.049Z,3.17
2022-07-29T01:27:00.971Z,3.20
2022-07-29T01:29:38.852Z,3.38
2022-07-29T01:32:28.482Z,3.13
2022-07-29T01:35:04.219Z,3.63
2022-07-29T01:37:40.217Z,3.63
2022-07-29T01:40:14.083Z,3.45
2022-07-29T01:42:46.780Z,3.45
2022-07-29T01:45:20.903Z,3.20
2022-07-29T01:47:55.715Z,2.67
2022-07-29T01:50:29.141Z,3.50
2022-07-29T01:53:00.567Z,3.63
2022-07-29T01:55:33.306Z,3.60
2022-07-29T01:58:03.157Z,5.13
2022-07-29T02:00:34.435Z,3.95
2022-07-29T02:03:09.667Z,3.13
2022-07-29T02:05:41.167Z,3.65
2022-07-29T02:08:10.376Z,3.63
2022-07-29T02:10:40.882Z,3.53
2022-07-29T02:13:11.709Z,3.83
2022-07-29T02:15:45.036Z,3.85
2022-07-29T02:18:17.794Z,2.97
2022-07-29T02:20:50.303Z,3.75
2022-07-29T02:23:23.545Z,3.58
2022-07-29T02:25:55.698Z,3.75
2022-07-29T02:28:25.042Z,4.25
2022-07-29T02:30:57.025Z,4.00
2022-07-29T02:33:26.897Z,3.67
2022-07-29T02:35:57.058Z,3.67
2022-07-29T02:38:46.942Z,3.75
2022-07-29T02:41:19.480Z,3.35
2022-07-29T02:43:50.710Z,3.20
2022-07-29T02:46:29.451Z,3.53
2022-07-29T02:49:04.080Z,2.80
2022-07-29T02:51:44.860Z,3.28
2022-07-29T02:54:21.570Z,3.53
2022-07-29T02:56:53.703Z,3.60
2022-07-29T02:59:25.945Z,3.03
2022-07-29T03:01:57.706Z,3.13
2022-07-29T03:04:29.499Z,3.00
2022-07-29T03:07:01.567Z,3.45
2022-07-29T03:09:31.034Z,3.05
2022-07-29T03:12:22.271Z,4.05
2022-07-29T03:14:50.989Z,3.17
2022-07-29T03:17:21.784Z,3.13
2022-07-29T03:19:50.670Z,3.20
2022-07-29T03:22:19.341Z,3.03
2022-07-29T03:24:47.806Z,3.20
2022-07-29T03:27:18.096Z,3.20
2022-07-29T03:29:50.137Z,3.10
2022-07-29T03:32:25.251Z,3.15
2022-07-29T03:34:53.765Z,2.88
2022-07-29T03:37:22.477Z,3.20
2022-07-29T03:39:53.134Z,3.20
2022-07-29T03:42:25.641Z,2.70
2022-07-29T03:44:57.686Z,2.65
2022-07-29T03:47:43.700Z,2.75
2022-07-29T03:50:22.008Z,3.05
2022-07-29T03:52:50.843Z,2.90
2022-07-29T03:55:19.210Z,2.90
2022-07-29T03:57:48.933Z,2.25
2022-07-29T04:02:49.808Z,2.65
2022-07-29T04:05:19.941Z,2.53
2022-07-29T04:07:48.820Z,2.63
2022-07-29T04:10:30.411Z,2.50
2022-07-29T04:13:00.939Z,2.47
2022-07-29T04:15:31.425Z,3.08
2022-07-29T04:18:01.873Z,2.45
2022-07-29T04:20:30.350Z,2.30
2022-07-29T04:22:58.649Z,2.88
2022-07-29T04:25:26.914Z,2.25
2022-07-29T04:28:04.480Z,2.27
2022-07-29T04:30:34.416Z,2.20
2022-07-29T04:33:05.262Z,2.50
2022-07-29T04:35:36.760Z,2.13
2022-07-29T04:38:07.829Z,2.58
2022-07-29T04:40:43.750Z,2.20
2022-07-29T04:43:12.593Z,2.10
2022-07-29T04:45:42.484Z,1.88
2022-07-29T04:48:12.127Z,2.47
2022-07-29T04:50:41.608Z,2.65
2022-07-29T04:53:09.927Z,2.33
2022-07-29T04:55:39.085Z,2.45
2022-07-29T04:58:11.332Z,2.63
2022-07-29T05:00:39.939Z,2.40
2022-07-29T05:03:08.574Z,2.60
2022-07-29T05:05:38.111Z,2.20
2022-07-29T05:08:06.871Z,2.38
2022-07-29T05:13:07.808Z,2.58
2022-07-29T05:15:36.762Z,2.50
2022-07-29T05:18:05.744Z,1.85
2022-07-29T05:20:35.235Z,1.70
2022-07-29T05:23:05.180Z,2.22
2022-07-29T05:25:40.816Z,2.20
2022-07-29T05:30:41.273Z,1.90
2022-07-29T05:33:09.454Z,2.00
2022-07-29T05:36:00.636Z,1.60
2022-07-29T05:38:31.114Z,2.33
2022-07-29T05:41:01.669Z,2.22
2022-07-29T05:43:30.993Z,1.85
2022-07-29T05:45:59.525Z,1.70
2022-07-29T05:48:28.281Z,1.30
2022-07-29T05:50:57.014Z,1.08
2022-07-29T05:53:25.558Z,0.90
2022-07-29T05:55:56.010Z,0.80
2022-07-29T05:58:24.275Z,0.60
2022-07-29T06:00:52.447Z,0.50
2022-07-29T06:03:20.862Z,0.63
2022-07-29T06:05:48.968Z,0.47
2022-07-29T06:08:18.204Z,0.35
2022-07-29T06:10:47.486Z,0.57
2022-07-29T06:13:17.337Z,0.25
2022-07-29T06:15:46.801Z,0.40
2022-07-29T06:18:15.254Z,0.40
2022-07-29T06:20:43.526Z,0.80
2022-07-29T06:23:11.754Z,0.30
2022-07-29T06:25:42.317Z,0.30
2022-07-29T06:28:10.826Z,0.35
2022-07-29T06:30:42.465Z,0.40
2022-07-29T06:33:10.918Z,0.40
2022-07-29T06:35:41.949Z,0.40
2022-07-29T06:38:31.686Z,0.30
2022-07-29T06:41:04.765Z,0.40
2022-07-29T06:43:50.405Z,0.38
2022-07-29T06:46:23.230Z,0.50
2022-07-29T06:48:53.128Z,0.40
2022-07-29T06:51:24.030Z,0.40
2022-07-29T06:53:58.431Z,0.30
2022-07-29T06:56:30.117Z,0.30
2022-07-29T06:58:58.233Z,0.20
2022-07-29T07:01:27.864Z,0.20
2022-07-29T07:03:56.310Z,0.30
2022-07-29T07:06:24.546Z,0.50
2022-07-29T07:08:52.659Z,0.32
2022-07-29T07:11:21.329Z,0.30
2022-07-29T07:13:49.453Z,0.28
2022-07-29T07:16:18.046Z,0.30
2022-07-29T07:18:47.919Z,0.20
2022-07-29T07:21:19.021Z,0.22
2022-07-29T07:23:50.658Z,0.20
2022-07-29T07:26:18.827Z,0.30
2022-07-29T07:28:46.927Z,0.30
2022-07-29T07:31:15.511Z,0.50
2022-07-29T07:33:43.679Z,0.35
2022-07-29T07:36:13.329Z,0.20
2022-07-29T07:38:41.736Z,0.30
2022-07-29T07:41:09.907Z,0.28
2022-07-29T07:43:38.250Z,0.63
2022-07-29T07:46:06.875Z,0.10
2022-07-29T07:48:35.879Z,0.30
2022-07-29T07:51:04.345Z,0.28
2022-07-29T07:53:34.034Z,0.20
2022-07-29T07:56:11.363Z,0.20
2022-07-29T07:58:40.760Z,0.30
2022-07-29T08:01:09.257Z,0.20
2022-07-29T08:03:37.476Z,0.20
2022-07-29T08:06:06.095Z,0.20
2022-07-29T08:08:35.861Z,0.20
2022-07-29T08:11:09.527Z,0.10
2022-07-29T08:13:39.483Z,0.22
2022-07-29T08:16:14.126Z,0.30
2022-07-29T08:18:44.256Z,0.30
2022-07-29T08:21:15.237Z,0.20
2022-07-29T08:23:59.659Z,0.10
2022-07-29T08:26:29.102Z,0.30
2022-07-29T08:28:57.551Z,0.10
2022-07-29T08:31:26.110Z,0.30
2022-07-29T08:33:54.302Z,0.20
2022-07-29T08:36:23.125Z,0.10
2022-07-29T08:38:52.679Z,0.10
2022-07-29T08:41:21.835Z,0.20
2022-07-29T08:43:50.910Z,0.20
2022-07-29T08:46:19.558Z,0.20
2022-07-29T08:48:48.396Z,0.20
2022-07-29T08:51:18.757Z,0.10
2022-07-29T08:53:49.142Z,0.15
2022-07-29T08:56:20.361Z,0.10
2022-07-29T08:58:51.933Z,0.10
2022-07-29T09:01:36.417Z,0.20
2022-07-29T09:04:11.296Z,0.20
2022-07-29T09:06:44.682Z,0.20
2022-07-29T09:09:15.921Z,0.20
2022-07-29T09:11:46.054Z,0.10
2022-07-29T09:14:15.524Z,0.08
2022-07-29T09:16:55.386Z,0.10
2022-07-29T09:19:29.380Z,0.10
2022-07-29T09:22:03.345Z,0.17
2022-07-29T09:24:51.680Z,0.10
2022-07-29T09:27:27.459Z,0.13
2022-07-29T09:30:00.573Z,0.28
2022-07-29T09:32:30.582Z,0.30
2022-07-29T09:35:21.797Z,0.22
2022-07-29T09:37:50.739Z,0.30
2022-07-29T09:40:20.964Z,0.20
2022-07-29T09:42:51.133Z,0.30
2022-07-29T09:45:30.388Z,0.32
2022-07-29T09:48:01.492Z,0.40
2022-07-29T09:50:40.937Z,0.80
2022-07-29T09:55:52.262Z,1.00
2022-07-29T09:58:23.784Z,0.30
2022-07-29T10:00:53.953Z,0.40
2022-07-29T10:03:22.427Z,0.60
2022-07-29T10:06:07.237Z,0.20
2022-07-29T10:08:36.055Z,0.30
2022-07-29T10:11:13.037Z,0.50
2022-07-29T10:13:44.092Z,0.45
2022-07-29T10:16:13.962Z,0.38
2022-07-29T10:18:44.618Z,0.90
2022-07-29T10:21:34.464Z,0.10
2022-07-29T10:24:01.772Z,0.40
2022-07-29T10:26:31.891Z,0.28
2022-07-29T10:29:02.489Z,0.20
2022-07-29T10:31:38.967Z,0.28
2022-07-29T10:34:15.962Z,0.30
2022-07-29T10:36:56.973Z,0.38
2022-07-29T10:39:45.180Z,0.30
2022-07-29T10:45:13.191Z,0.30
2022-07-29T10:47:43.954Z,0.30
2022-07-29T10:52:57.548Z,0.10
2022-07-29T10:55:43.721Z,0.10
2022-07-29T10:58:14.799Z,0.20
2022-07-29T11:00:45.596Z,0.15
2022-07-29T11:03:49.487Z,0.20
2022-07-29T11:06:26.234Z,0.28
2022-07-29T11:09:20.272Z,0.22
2022-07-29T11:11:51.650Z,0.20
2022-07-29T11:17:10.289Z,0.10
2022-07-29T11:19:49.275Z,0.17
2022-07-29T11:22:45.975Z,0.20
2022-07-29T11:25:17.003Z,0.10
2022-07-29T11:27:46.470Z,0.10
2022-07-29T11:30:16.539Z,0.28
2022-07-29T11:32:48.599Z,0.13
2022-07-29T11:35:36.772Z,0.20
2022-07-29T11:38:28.095Z,0.10
2022-07-29T11:41:31.775Z,0.20
2022-07-29T11:44:02.170Z,0.20
2022-07-29T11:46:48.172Z,0.25
2022-07-29T11:49:22.286Z,0.20
2022-07-29T11:52:03.805Z,0.20
2022-07-29T11:54:57.242Z,0.20
2022-07-29T11:57:36.478Z,0.10
2022-07-29T12:00:09.524Z,0.20
2022-07-29T12:05:48.304Z,0.10
2022-07-29T12:08:22.910Z,0.10
2022-07-29T12:10:52.815Z,0.10
2022-07-29T12:13:23.006Z,0.10
2022-07-29T12:16:07.056Z,0.10
2022-07-29T12:18:35.550Z,0.17
2022-07-29T12:21:05.618Z,0.10
2022-07-29T12:23:35.598Z,0.20
2022-07-29T12:26:07.411Z,0.10
2022-07-29T12:28:39.515Z,0.20
2022-07-29T12:31:15.081Z,0.30
2022-07-29T12:34:03.809Z,0.10
2022-07-29T12:36:33.543Z,0.17
2022-07-29T12:39:02.167Z,0.20
2022-07-29T12:41:30.448Z,0.20
2022-07-29T12:43:58.643Z,0.20
2022-07-29T12:46:27.005Z,0.20
2022-07-29T12:48:57.729Z,0.10
2022-07-29T12:51:32.094Z,0.10
2022-07-29T12:54:11.706Z,0.20
2022-07-29T12:56:44.428Z,0.20
2022-07-29T12:59:15.399Z,0.10
2022-07-29T13:01:43.608Z,0.20
2022-07-29T13:04:12.167Z,0.20
2022-07-29T13:06:42.752Z,0.10
2022-07-29T13:09:17.908Z,0.10
2022-07-29T13:11:48.947Z,0.22
2022-07-29T13:14:33.300Z,0.20
2022-07-29T13:17:07.619Z,0.50
2022-07-29T13:19:38.589Z,0.20
2022-07-29T13:22:07.369Z,0.22
2022-07-29T13:24:48.424Z,0.20
2022-07-29T13:27:18.221Z,0.20
2022-07-29T13:29:46.649Z,0.20
2022-07-29T13:32:15.193Z,0.20
2022-07-29T13:34:43.577Z,0.22
2022-07-29T13:37:12.087Z,0.10
2022-07-29T13:39:41.981Z,0.20
2022-07-29T13:42:21.526Z,0.10
2022-07-29T13:44:51.975Z,0.17
2022-07-29T13:47:20.434Z,0.40
2022-07-29T13:49:49.076Z,0.30
2022-07-29T13:52:17.644Z,0.10
2022-07-29T13:54:47.384Z,0.50
2022-07-29T13:57:16.334Z,0.20
2022-07-29T13:59:47.468Z,0.20
2022-07-29T14:02:17.729Z,0.20
2022-07-29T14:04:45.914Z,0.20
2022-07-29T14:07:16.359Z,0.40
2022-07-29T14:09:48.467Z,0.17
2022-07-29T14:12:16.645Z,0.20
2022-07-29T14:14:44.945Z,0.30
2022-07-29T14:17:16.041Z,0.77
2022-07-29T14:19:45.646Z,0.60
2022-07-29T14:22:15.354Z,0.30
2022-07-29T14:24:46.211Z,0.50
2022-07-29T14:27:15.218Z,0.20
2022-07-29T14:29:43.367Z,0.20
2022-07-29T14:32:12.590Z,0.10
2022-07-29T14:34:41.165Z,0.22
2022-07-29T14:37:16.069Z,0.22
2022-07-29T14:39:46.109Z,0.10
2022-07-29T14:42:14.316Z,0.20
2022-07-29T14:44:42.928Z,0.30
2022-07-29T14:47:16.613Z,0.10
2022-07-29T14:49:44.827Z,0.40
2022-07-29T14:52:12.939Z,0.32
2022-07-29T14:54:41.693Z,0.20
2022-07-29T14:57:11.564Z,0.20
2022-07-29T14:59:39.703Z,0.20
2022-07-29T15:02:08.197Z,0.20
2022-07-29T15:04:36.458Z,0.10
2022-07-29T15:07:04.647Z,0.17
2022-07-29T15:09:33.049Z,0.20
2022-07-29T15:12:09.319Z,0.30
2022-07-29T15:14:39.691Z,0.90
2022-07-29T15:17:08.028Z,0.30
2022-07-29T15:19:36.908Z,0.20
2022-07-29T15:22:07.078Z,0.20
2022-07-29T15:24:35.303Z,0.20
2022-07-29T15:27:06.060Z,0.30
2022-07-29T15:29:34.575Z,0.45
2022-07-29T15:32:29.957Z,0.40
2022-07-29T15:34:58.313Z,0.20
2022-07-29T15:37:26.518Z,0.30
2022-07-29T15:39:58.353Z,0.20
2022-07-29T15:42:28.566Z,0.20
2022-07-29T15:44:57.804Z,0.30
2022-07-29T15:47:31.458Z,0.40
2022-07-29T15:49:59.975Z,0.30
2022-07-29T15:52:28.119Z,0.38
2022-07-29T15:54:57.775Z,0.32
2022-07-29T15:57:26.935Z,0.30
2022-07-29T15:59:55.055Z,0.20
2022-07-29T16:02:23.226Z,0.30
2022-07-29T16:04:53.364Z,0.30
2022-07-29T16:07:21.502Z,0.28
2022-07-29T16:09:53.243Z,0.20
2022-07-29T16:12:21.909Z,0.20
2022-07-29T16:14:51.355Z,0.25
2022-07-29T16:17:19.770Z,0.30
2022-07-29T16:19:49.258Z,0.43
